Time;durP1;ratioP1;P1;durP2;ratioP2;P2;SDS_P1;SDS_P2;PMS_P1;PMS_P2;Temp;Humidity;BMP_temperature;BMP_pressure;BME280_temperature;BME280_humidity;BME280_pressure;Samples;Min_cycle;Max_cycle;Signal;HPM_P1;HPM_P2
2022/05/18 00:00:59;;;;;;;6.78;5.60;;;17.20;99.90;;;;;;4958973;28;88709;-35
2022/05/18 00:03:35;;;;;;;8.07;6.20;;;17.20;99.90;;;;;;4959763;28;88116;-36
2022/05/18 00:06:02;;;;;;;6.00;5.40;;;17.10;99.90;;;;;;4959981;28;90294;-36
2022/05/18 00:08:28;;;;;;;6.72;5.75;;;17.10;99.90;;;;;;4959340;28;90689;-36
2022/05/18 00:10:53;;;;;;;8.27;6.75;;;17.00;99.90;;;;;;4959231;28;90798;-35
2022/05/18 00:13:20;;;;;;;7.10;6.40;;;17.10;99.90;;;;;;4960419;28;87449;-36
2022/05/18 00:15:47;;;;;;;6.88;6.20;;;17.00;99.90;;;;;;4959122;28;90420;-34
2022/05/18 00:18:12;;;;;;;7.15;6.32;;;17.00;99.90;;;;;;4959468;28;89798;-40
2022/05/18 00:20:38;;;;;;;9.10;7.32;;;16.90;99.90;;;;;;4960037;28;89800;-38
2022/05/18 00:23:05;;;;;;;7.13;6.43;;;16.90;99.90;;;;;;4959587;28;88882;-34
2022/05/18 00:25:35;;;;;;;9.25;8.35;;;16.90;99.90;;;;;;4959868;28;90296;-36
2022/05/18 00:28:01;;;;;;;8.18;6.22;;;16.90;99.90;;;;;;4959217;28;89989;-35
2022/05/18 00:30:28;;;;;;;7.20;6.47;;;16.90;99.90;;;;;;4959702;28;89667;-35
2022/05/18 00:32:54;;;;;;;7.53;6.47;;;16.90;99.90;;;;;;4958660;28;90222;-37
2022/05/18 00:35:22;;;;;;;9.90;6.65;;;16.80;99.90;;;;;;4959527;28;89079;-37
2022/05/18 00:37:48;;;;;;;;;;;16.80;99.90;;;;;;4960087;28;90015;-39
2022/05/18 00:40:19;;;;;;;8.68;6.57;;;16.80;99.90;;;;;;4960050;28;89396;-37
2022/05/18 00:42:44;;;;;;;8.98;7.57;;;16.80;99.90;;;;;;4959408;28;90026;-36
2022/05/18 00:45:10;;;;;;;8.98;6.40;;;16.70;99.90;;;;;;5008493;22;90503;-36
2022/05/18 00:47:36;;;;;;;11.90;7.78;;;16.60;99.90;;;;;;4979576;28;89488;-39
2022/05/18 00:50:07;;;;;;;8.38;7.13;;;16.60;99.90;;;;;;4979005;28;89942;-36
2022/05/18 00:52:38;;;;;;;7.63;6.93;;;16.60;99.90;;;;;;4979296;28;88264;-35
2022/05/18 00:55:08;;;;;;;6.53;5.93;;;16.60;99.90;;;;;;4978832;28;90352;-36
2022/05/18 00:57:46;;;;;;;10.40;6.68;;;16.60;99.90;;;;;;4978776;28;90301;-34
2022/05/18 01:00:15;;;;;;;12.05;6.95;;;16.60;99.90;;;;;;4979484;28;89463;-37
2022/05/18 01:02:47;;;;;;;7.53;6.82;;;16.60;99.90;;;;;;4978744;28;90135;-33
2022/05/18 01:05:16;;;;;;;9.00;7.13;;;16.50;99.90;;;;;;4979968;28;91175;-35
2022/05/18 01:07:47;;;;;;;8.55;6.20;;;16.50;99.90;;;;;;4982078;28;90130;-37
2022/05/18 01:10:13;;;;;;;6.80;5.90;;;16.50;99.90;;;;;;4982700;28;89144;-33
2022/05/18 01:12:39;;;;;;;8.77;7.75;;;16.40;99.90;;;;;;4982393;28;88006;-38
2022/05/18 01:15:11;;;;;;;11.00;6.20;;;16.40;99.90;;;;;;4982439;28;90101;-34
2022/05/18 01:17:43;;;;;;;8.10;6.85;;;16.40;99.90;;;;;;4981463;28;89595;-38
2022/05/18 01:20:13;;;;;;;8.35;7.50;;;16.40;99.90;;;;;;4982108;28;91095;-33
2022/05/18 01:23:08;;;;;;;9.82;6.65;;;16.30;99.90;;;;;;4982007;28;89454;-35
2022/05/18 01:26:05;;;;;;;9.60;7.03;;;16.20;99.90;;;;;;4981737;28;90109;-38
2022/05/18 01:28:35;;;;;;;8.73;7.20;;;16.20;99.90;;;;;;4981130;28;89845;-35
2022/05/18 01:31:04;;;;;;;10.75;7.47;;;16.10;99.90;;;;;;4981623;28;89255;-33
2022/05/18 01:33:31;;;;;;;10.25;7.10;;;16.10;99.90;;;;;;4972174;28;89782;-33
2022/05/18 01:35:57;;;;;;;10.00;6.80;;;16.00;99.90;;;;;;4962173;28;90226;-39
2022/05/18 01:38:23;;;;;;;8.70;7.82;;;15.90;99.90;;;;;;4961668;28;89522;-36
2022/05/18 01:41:07;;;;;;;8.35;7.55;;;16.00;99.90;;;;;;4961521;28;89587;-37
2022/05/18 01:43:49;;;;;;;9.57;7.70;;;15.90;99.90;;;;;;4962236;28;87988;-36
2022/05/18 01:46:17;;;;;;;10.05;7.38;;;15.80;99.90;;;;;;4961293;28;90197;-36
2022/05/18 01:48:46;;;;;;;9.05;8.15;;;15.90;99.90;;;;;;4961201;28;91153;-38
2022/05/18 01:51:21;;;;;;;8.50;7.22;;;15.80;99.90;;;;;;4962118;28;90430;-35
2022/05/18 01:53:47;;;;;;;9.93;7.35;;;15.80;99.90;;;;;;4962023;28;89059;-36
2022/05/18 01:56:12;;;;;;;14.93;8.07;;;15.70;99.90;;;;;;4961577;28;90213;-40
2022/05/18 01:58:38;;;;;;;9.98;8.18;;;15.70;99.90;;;;;;4961441;28;89701;-37
2022/05/18 02:01:04;;;;;;;9.32;7.00;;;15.90;99.90;;;;;;4961662;28;89150;-41
2022/05/18 02:03:29;;;;;;;7.05;6.35;;;15.90;99.90;;;;;;4961885;28;89221;-34
2022/05/18 02:05:55;;;;;;;9.65;8.65;;;15.80;99.90;;;;;;4961048;28;90568;-36
2022/05/18 02:08:22;;;;;;;9.20;7.57;;;15.80;99.90;;;;;;4961321;28;89962;-38
2022/05/18 02:10:48;;;;;;;11.70;8.13;;;15.80;99.90;;;;;;4961392;28;91225;-37
2022/05/18 02:13:15;;;;;;;9.05;8.05;;;15.80;99.90;;;;;;4960865;28;89145;-33
2022/05/18 02:15:41;;;;;;;8.90;8.10;;;15.80;99.90;;;;;;4961180;28;90311;-37
2022/05/18 02:18:07;;;;;;;11.73;7.85;;;15.80;99.90;;;;;;4959876;28;89812;-38
2022/05/18 02:20:34;;;;;;;9.85;8.10;;;15.80;99.90;;;;;;4943324;28;88779;-39
2022/05/18 02:23:01;;;;;;;12.20;8.23;;;15.70;99.90;;;;;;4961299;28;87835;-36
2022/05/18 02:25:26;;;;;;;7.88;7.15;;;15.70;99.90;;;;;;4961281;28;90524;-35
2022/05/18 02:27:53;;;;;;;7.50;6.82;;;15.60;99.90;;;;;;4960474;28;88608;-38
2022/05/18 02:30:19;;;;;;;9.50;7.22;;;15.60;99.90;;;;;;4961496;28;90079;-38
2022/05/18 02:32:44;;;;;;;9.00;8.20;;;15.60;99.90;;;;;;4960073;28;88606;-36
2022/05/18 02:35:10;;;;;;;11.43;8.27;;;15.60;99.90;;;;;;4961143;28;96868;-39
2022/05/18 02:37:36;;;;;;;10.07;7.13;;;15.60;99.90;;;;;;4960019;28;91704;-34
2022/05/18 02:40:02;;;;;;;6.80;6.20;;;15.60;99.90;;;;;;4961148;28;90743;-37
2022/05/18 02:42:27;;;;;;;8.00;7.30;;;15.60;99.90;;;;;;4961135;28;89760;-37
2022/05/18 02:44:53;;;;;;;10.02;7.65;;;15.60;99.90;;;;;;4959479;28;94324;-36
2022/05/18 02:47:20;;;;;;;10.32;7.28;;;15.50;99.90;;;;;;4960947;28;89625;-38
2022/05/18 02:49:46;;;;;;;10.73;8.02;;;15.60;99.90;;;;;;4960621;28;91168;-35
2022/05/18 02:52:12;;;;;;;9.65;7.90;;;15.60;99.90;;;;;;4960570;28;89847;-36
2022/05/18 02:57:22;;;;;;;9.25;8.35;;;15.50;99.90;;;;;;4960147;28;89495;-33
2022/05/18 02:59:47;;;;;;;11.35;8.30;;;15.50;99.90;;;;;;4959972;28;89821;-39
2022/05/18 03:02:13;;;;;;;11.02;8.45;;;15.50;99.90;;;;;;4960243;28;88679;-36
2022/05/18 03:04:39;;;;;;;12.63;8.13;;;15.50;99.90;;;;;;4959901;28;90020;-35
2022/05/18 03:07:05;;;;;;;9.75;7.60;;;15.50;99.90;;;;;;4960564;28;89950;-34
2022/05/18 03:09:31;;;;;;;10.40;7.43;;;15.40;99.90;;;;;;4942264;28;89516;-38
2022/05/18 03:11:56;;;;;;;9.52;8.68;;;15.40;99.90;;;;;;4960859;28;88795;-33
2022/05/18 03:14:23;;;;;;;9.77;8.77;;;15.40;99.90;;;;;;4960630;28;89790;-36
2022/05/18 03:16:50;;;;;;;8.93;8.02;;;15.40;99.90;;;;;;4959773;28;88829;-35
2022/05/18 03:19:16;;;;;;;9.88;8.32;;;15.40;99.90;;;;;;4960824;28;89469;-34
2022/05/18 03:24:26;;;;;;;12.35;7.47;;;15.30;99.90;;;;;;4960020;28;90670;-39
2022/05/18 03:26:52;;;;;;;10.07;8.43;;;15.30;99.90;;;;;;4959884;28;90825;-34
2022/05/18 03:29:18;;;;;;;11.38;9.10;;;15.30;99.90;;;;;;4959665;28;90405;-34
2022/05/18 03:31:44;;;;;;;8.40;7.55;;;15.30;99.90;;;;;;4960083;28;88171;-37
2022/05/18 03:34:10;;;;;;;10.07;8.90;;;15.30;99.90;;;;;;4960392;28;90370;-37
2022/05/18 03:36:36;;;;;;;8.30;7.18;;;15.30;99.90;;;;;;4959452;28;90103;-35
2022/05/18 03:39:03;;;;;;;14.27;8.60;;;15.30;99.90;;;;;;4960561;28;89557;-37
2022/05/18 03:41:29;;;;;;;13.30;8.40;;;15.20;99.90;;;;;;4960064;28;88407;-33
2022/05/18 03:43:55;;;;;;;9.25;8.18;;;15.20;99.90;;;;;;4959632;28;90101;-38
2022/05/18 03:46:21;;;;;;;13.52;8.68;;;15.20;99.90;;;;;;4959750;28;89582;-33
2022/05/18 03:48:47;;;;;;;8.95;7.85;;;15.20;99.90;;;;;;4958901;28;89447;-38
2022/05/18 03:51:16;;;;;;;8.93;8.07;;;15.20;99.90;;;;;;4959931;28;89195;-36
2022/05/18 03:53:42;;;;;;;8.18;7.43;;;15.20;99.90;;;;;;4959931;28;90163;-37
2022/05/18 03:56:09;;;;;;;10.70;8.80;;;15.20;99.90;;;;;;4959999;28;89507;-33
2022/05/18 03:58:35;;;;;;;9.55;8.48;;;15.20;99.90;;;;;;4958906;28;90170;-39
2022/05/18 04:01:01;;;;;;;10.15;9.02;;;15.20;99.90;;;;;;4960453;28;88737;-39
2022/05/18 04:03:29;;;;;;;8.30;7.60;;;15.20;99.90;;;;;;4958943;28;90416;-37
2022/05/18 04:05:55;;;;;;;9.63;8.68;;;15.20;99.90;;;;;;4959303;28;90002;-34
2022/05/18 04:08:21;;;;;;;10.35;9.10;;;15.10;99.90;;;;;;4959998;28;88771;-36
2022/05/18 04:10:47;;;;;;;12.18;9.55;;;15.30;99.90;;;;;;4960018;28;89213;-36
2022/05/18 04:13:20;;;;;;;10.80;9.50;;;15.20;99.90;;;;;;4958831;28;90420;-38
2022/05/18 04:15:46;;;;;;;12.10;10.10;;;15.30;99.90;;;;;;4958759;28;92527;-35
2022/05/18 04:18:12;;;;;;;13.32;8.73;;;15.30;99.90;;;;;;4958801;28;90369;-35
2022/05/18 04:20:38;;;;;;;11.32;9.73;;;15.30;99.90;;;;;;4959771;28;89450;-34
2022/05/18 04:23:04;;;;;;;10.63;8.55;;;15.40;99.90;;;;;;4959474;28;90407;-38
2022/05/18 04:25:30;;;;;;;10.13;8.43;;;15.50;99.90;;;;;;4959752;28;89165;-40
2022/05/18 04:27:56;;;;;;;10.23;8.52;;;15.70;99.90;;;;;;4958826;28;89533;-37
2022/05/18 04:30:24;;;;;;;10.77;9.77;;;16.10;99.90;;;;;;4959000;28;88669;-39
2022/05/18 04:32:51;;;;;;;14.23;8.73;;;16.50;99.90;;;;;;4958602;28;90735;-37
2022/05/18 04:35:20;;;;;;;11.05;9.80;;;16.40;99.90;;;;;;4959436;28;89624;-34
2022/05/18 04:37:45;;;;;;;14.43;10.02;;;16.50;99.90;;;;;;4958684;28;90691;-36
2022/05/18 04:40:11;;;;;;;10.13;8.48;;;16.40;99.90;;;;;;4959300;28;90757;-35
2022/05/18 04:42:37;;;;;;;10.75;8.35;;;16.40;99.90;;;;;;4963040;28;90201;-35
2022/05/18 04:45:05;;;;;;;11.32;8.77;;;16.60;99.90;;;;;;4961780;28;89228;-35
2022/05/18 04:47:30;;;;;;;17.10;8.97;;;16.50;99.90;;;;;;4962618;28;89886;-35
2022/05/18 04:49:57;;;;;;;10.75;9.45;;;16.60;99.90;;;;;;4962519;28;89183;-37
2022/05/18 04:52:23;;;;;;;11.38;8.93;;;16.70;99.90;;;;;;4961985;28;90002;-34
2022/05/18 04:54:49;;;;;;;9.13;8.23;;;17.00;99.90;;;;;;4962346;28;89501;-36
2022/05/18 04:57:16;;;;;;;14.77;9.43;;;17.00;99.90;;;;;;4962946;28;89432;-36
2022/05/18 04:59:42;;;;;;;9.43;8.43;;;17.20;99.90;;;;;;4962237;28;87680;-37
2022/05/18 05:02:07;;;;;;;13.05;9.00;;;17.30;99.90;;;;;;4962412;28;90137;-34
2022/05/18 05:04:34;;;;;;;9.48;8.50;;;17.30;99.90;;;;;;4961530;28;90657;-36
2022/05/18 05:06:59;;;;;;;9.63;8.65;;;17.30;99.90;;;;;;4971367;28;90018;-35
2022/05/18 05:09:26;;;;;;;10.07;9.02;;;17.30;99.90;;;;;;4981407;28;88274;-37
2022/05/18 05:11:52;;;;;;;10.63;8.27;;;17.60;99.90;;;;;;4981217;28;89134;-35
2022/05/18 05:14:19;;;;;;;14.32;9.65;;;17.50;99.90;;;;;;4981830;28;89033;-40
2022/05/18 05:16:45;;;;;;;10.52;9.10;;;17.50;99.90;;;;;;4982177;28;89798;-36
2022/05/18 05:19:11;;;;;;;10.23;9.18;;;17.60;99.90;;;;;;4981774;28;89862;-37
2022/05/18 05:21:41;;;;;;;10.05;9.05;;;17.70;99.90;;;;;;4981345;28;90196;-40
2022/05/18 05:24:07;;;;;;;10.35;9.32;;;17.50;99.90;;;;;;4981470;28;89942;-37
2022/05/18 05:26:32;;;;;;;11.13;9.30;;;17.50;99.90;;;;;;4982362;28;89525;-34
2022/05/18 05:28:58;;;;;;;10.13;8.70;;;17.60;99.90;;;;;;4980904;28;89547;-35
2022/05/18 05:31:24;;;;;;;13.45;9.95;;;17.70;99.90;;;;;;4982041;28;90791;-35
2022/05/18 05:33:49;;;;;;;12.65;9.35;;;17.90;99.90;;;;;;4980904;28;89536;-37
2022/05/18 05:36:15;;;;;;;9.27;8.35;;;18.00;99.90;;;;;;4981984;28;89439;-36
2022/05/18 05:38:40;;;;;;;11.25;9.75;;;18.40;99.90;;;;;;4981678;28;89715;-36
2022/05/18 05:41:06;;;;;;;13.15;9.30;;;18.30;99.90;;;;;;4981791;28;90381;-35
2022/05/18 05:43:32;;;;;;;11.15;9.93;;;18.30;99.90;;;;;;4981362;28;89900;-36
2022/05/18 05:45:59;;;;;;;11.02;9.85;;;18.40;99.90;;;;;;4980323;28;90635;-34
2022/05/18 05:48:25;;;;;;;11.63;10.50;;;18.70;99.90;;;;;;4981048;28;89721;-41
2022/05/18 05:50:51;;;;;;;11.02;10.00;;;18.60;99.90;;;;;;4978654;28;91685;-38
2022/05/18 05:53:16;;;;;;;12.63;10.20;;;18.90;99.90;;;;;;4977734;28;90688;-35
2022/05/18 05:55:42;;;;;;;12.20;10.77;;;19.10;99.90;;;;;;4978174;28;88832;-37
2022/05/18 05:58:07;;;;;;;13.70;10.05;;;19.30;99.90;;;;;;4978596;28;88543;-38
2022/05/18 06:00:33;;;;;;;12.48;10.88;;;19.40;99.90;;;;;;4978899;28;89950;-37
2022/05/18 06:02:59;;;;;;;13.30;10.30;;;19.70;99.90;;;;;;4978136;28;89833;-35
2022/05/18 06:05:25;;;;;;;10.35;9.30;;;19.90;99.90;;;;;;4978942;28;88568;-37
2022/05/18 06:07:51;;;;;;;10.48;9.32;;;20.10;99.90;;;;;;4979316;28;89579;-34
2022/05/18 06:10:16;;;;;;;10.80;9.43;;;20.30;99.90;;;;;;4979406;28;90103;-35
2022/05/18 06:12:42;;;;;;;10.95;9.77;;;20.60;99.90;;;;;;4978865;28;89957;-38
2022/05/18 06:15:09;;;;;;;12.45;9.52;;;20.70;99.90;;;;;;4977894;28;89737;-40
2022/05/18 06:17:35;;;;;;;14.57;9.98;;;21.00;99.90;;;;;;4978216;28;90852;-39
2022/05/18 06:20:00;;;;;;;10.25;9.20;;;21.10;99.90;;;;;;4978771;28;90245;-37
2022/05/18 06:22:26;;;;;;;10.30;9.13;;;21.40;99.90;;;;;;4978805;28;89911;-37
2022/05/18 06:24:54;;;;;;;8.85;7.93;;;21.60;99.90;;;;;;4978935;28;89271;-37
2022/05/18 06:27:20;;;;;;;10.07;9.10;;;21.60;99.90;;;;;;4979214;28;88471;-39
2022/05/18 06:29:48;;;;;;;12.25;8.52;;;21.70;99.90;;;;;;4977511;28;90063;-39
2022/05/18 06:32:14;;;;;;;20.23;9.30;;;22.00;99.90;;;;;;4979107;28;88770;-39
2022/05/18 06:34:39;;;;;;;10.18;9.27;;;22.20;99.90;;;;;;4979331;28;89686;-36
2022/05/18 06:37:05;;;;;;;9.38;8.20;;;22.20;99.90;;;;;;4979092;28;89027;-38
2022/05/18 06:39:31;;;;;;;9.20;8.30;;;22.30;99.90;;;;;;4978476;28;90343;-35
2022/05/18 06:41:57;;;;;;;9.18;8.35;;;22.40;99.90;;;;;;4959615;28;92165;-39
2022/05/18 06:44:24;;;;;;;9.82;8.77;;;22.20;99.90;;;;;;4978199;28;90216;-38
2022/05/18 06:46:50;;;;;;;10.45;9.43;;;22.50;99.90;;;;;;4978655;28;89690;-35
2022/05/18 06:49:17;;;;;;;17.35;8.52;;;22.80;99.90;;;;;;4978260;28;90417;-39
2022/05/18 06:51:45;;;;;;;11.93;9.60;;;22.90;99.90;;;;;;4978205;28;89552;-34
2022/05/18 06:54:12;;;;;;;10.63;8.45;;;22.90;99.90;;;;;;4977934;28;89131;-36
2022/05/18 06:56:42;;;;;;;11.50;9.43;;;23.00;99.90;;;;;;4978670;28;88734;-38
2022/05/18 06:59:10;;;;;;;10.73;9.25;;;23.20;99.90;;;;;;4978975;28;90373;-39
2022/05/18 07:01:35;;;;;;;;;;;23.60;99.90;;;;;;4978230;28;89589;-38
2022/05/18 07:04:02;;;;;;;12.65;10.38;;;23.60;99.90;;;;;;4978472;28;89235;-38
2022/05/18 07:06:34;;;;;;;10.93;9.73;;;23.50;99.90;;;;;;4978099;28;89515;-37
2022/05/18 07:09:01;;;;;;;12.15;9.27;;;23.70;99.90;;;;;;4978093;28;90344;-39
2022/05/18 07:11:27;;;;;;;11.57;8.63;;;23.90;99.90;;;;;;4978783;28;90521;-35
2022/05/18 07:13:54;;;;;;;8.90;7.88;;;24.20;99.90;;;;;;4977984;28;89361;-36
2022/05/18 07:16:26;;;;;;;9.98;8.27;;;24.20;99.90;;;;;;4978018;28;87758;-35
2022/05/18 07:18:51;;;;;;;9.90;8.88;;;24.60;99.90;;;;;;4977766;28;91095;-38
2022/05/18 07:21:18;;;;;;;9.60;8.48;;;24.80;99.90;;;;;;4978559;28;89829;-36
2022/05/18 07:23:44;;;;;;;10.98;8.00;;;25.10;99.90;;;;;;4978591;28;90156;-39
2022/05/18 07:26:10;;;;;;;9.60;7.88;;;24.90;99.90;;;;;;4978105;28;88696;-36
2022/05/18 07:28:36;;;;;;;10.05;8.98;;;25.20;99.90;;;;;;4977561;28;90476;-36
2022/05/18 07:31:02;;;;;;;16.73;9.27;;;24.90;99.90;;;;;;4977445;28;91052;-37
2022/05/18 07:33:28;;;;;;;9.48;8.20;;;25.20;99.90;;;;;;4977993;28;90504;-37
2022/05/18 07:35:54;;;;;;;11.40;7.93;;;25.30;99.90;;;;;;4978527;28;90188;-34
2022/05/18 07:38:22;;;;;;;8.38;7.38;;;25.30;99.90;;;;;;4977696;28;90549;-36
2022/05/18 07:40:49;;;;;;;13.50;8.93;;;25.50;99.90;;;;;;4976835;28;89592;-35
2022/05/18 07:43:18;;;;;;;9.32;8.13;;;25.50;99.90;;;;;;4977884;28;89507;-36
2022/05/18 07:45:45;;;;;;;8.23;7.35;;;25.60;99.90;;;;;;4977186;28;88350;-38
2022/05/18 07:48:11;;;;;;;8.80;8.00;;;25.80;99.90;;;;;;4977887;28;90247;-37
2022/05/18 07:50:36;;;;;;;15.70;9.60;;;25.50;99.90;;;;;;4976992;28;89516;-40
2022/05/18 07:53:02;;;;;;;7.72;7.03;;;25.90;99.90;;;;;;4977823;28;89641;-36
2022/05/18 07:55:28;;;;;;;8.85;8.00;;;26.00;99.90;;;;;;4977207;28;89795;-34
2022/05/18 07:57:54;;;;;;;12.80;6.70;;;25.60;99.90;;;;;;4977419;28;90534;-38
2022/05/18 08:00:21;;;;;;;8.07;7.28;;;26.00;99.90;;;;;;4977550;28;91470;-36
2022/05/18 08:02:47;;;;;;;10.77;6.88;;;26.30;99.90;;;;;;4977372;28;89484;-36
2022/05/18 08:05:12;;;;;;;9.70;6.82;;;26.50;99.90;;;;;;4978130;28;89002;-39
2022/05/18 08:07:42;;;;;;;10.07;6.57;;;26.40;99.90;;;;;;4976584;28;91258;-39
2022/05/18 08:15:37;;;;;;;7.53;6.18;;;26.30;97.20;;;;;;4977555;28;89216;-36
2022/05/18 08:18:03;;;;;;;5.28;4.85;;;26.60;99.50;;;;;;4977019;28;90179;-36
2022/05/18 08:20:30;;;;;;;5.93;4.88;;;27.00;93.80;;;;;;4959288;28;90741;-38
2022/05/18 08:22:55;;;;;;;8.40;6.23;;;27.00;88.90;;;;;;4976719;28;91650;-36
2022/05/18 08:25:21;;;;;;;6.28;5.28;;;26.90;90.80;;;;;;4977060;28;88513;-37
2022/05/18 08:27:48;;;;;;;10.05;6.45;;;27.20;92.80;;;;;;4977428;28;91493;-36
2022/05/18 08:30:17;;;;;;;6.35;5.75;;;27.20;80.60;;;;;;4976825;28;89884;-38
2022/05/18 08:32:43;;;;;;;7.15;6.45;;;27.20;85.60;;;;;;4976423;28;89394;-39
2022/05/18 08:35:10;;;;;;;12.20;7.38;;;27.20;83.50;;;;;;4977499;28;90388;-34
2022/05/18 08:37:47;;;;;;;7.23;6.53;;;27.10;82.50;;;;;;4977065;28;90032;-34
2022/05/18 08:40:21;;;;;;;8.57;6.22;;;27.30;85.20;;;;;;4977239;28;90266;-36
2022/05/18 08:42:47;;;;;;;8.07;6.05;;;27.20;87.90;;;;;;4976676;28;89753;-35
2022/05/18 08:45:12;;;;;;;12.38;6.38;;;27.20;91.30;;;;;;4958018;28;89335;-39
2022/05/18 08:47:41;;;;;;;7.95;6.50;;;27.50;90.40;;;;;;4976875;28;90534;-38
2022/05/18 08:50:14;;;;;;;7.03;6.38;;;27.20;92.80;;;;;;4977206;28;89508;-37
2022/05/18 08:53:01;;;;;;;9.80;7.55;;;27.60;86.40;;;;;;4976661;28;89970;-37
2022/05/18 08:55:58;;;;;;;10.68;7.45;;;27.60;87.80;;;;;;4966004;28;88192;-36
2022/05/18 08:58:30;;;;;;;11.32;8.00;;;27.60;90.10;;;;;;4976777;28;90077;-38
2022/05/18 09:01:04;;;;;;;7.95;6.72;;;27.30;91.00;;;;;;4976307;28;90264;-34
2022/05/18 09:03:40;;;;;;;9.48;6.47;;;27.40;87.50;;;;;;4977284;28;90498;-39
2022/05/18 09:06:36;;;;;;;8.35;7.45;;;27.60;83.90;;;;;;4977449;28;90074;-38
2022/05/18 09:11:59;;;;;;;7.55;6.55;;;27.70;85.50;;;;;;4975551;28;90749;-38
2022/05/18 09:14:28;;;;;;;10.18;5.93;;;27.50;86.60;;;;;;4976905;28;90505;-38
2022/05/18 09:17:04;;;;;;;9.27;7.47;;;27.70;86.50;;;;;;4977086;28;88654;-38
2022/05/18 09:19:59;;;;;;;8.63;7.32;;;27.50;90.00;;;;;;4975968;28;93226;-38
2022/05/18 09:22:51;;;;;;;10.23;7.55;;;27.60;82.50;;;;;;4976339;28;89706;-36
2022/05/18 09:25:20;;;;;;;10.80;6.60;;;27.60;89.30;;;;;;4975899;28;89623;-36
2022/05/18 09:28:16;;;;;;;7.70;6.40;;;27.70;81.10;;;;;;4979967;28;89466;-40
2022/05/18 09:30:48;;;;;;;13.15;7.75;;;28.00;76.10;;;;;;4979368;28;90349;-38
2022/05/18 09:33:19;;;;;;;9.23;7.25;;;27.80;75.50;;;;;;4980023;28;89993;-37
2022/05/18 09:35:51;;;;;;;7.45;6.57;;;27.80;80.50;;;;;;4979534;28;89620;-35
2022/05/18 09:38:21;;;;;;;6.82;6.18;;;27.90;75.50;;;;;;4979688;28;90004;-36
2022/05/18 09:40:48;;;;;;;9.32;8.45;;;28.10;74.40;;;;;;4980070;28;91167;-37
2022/05/18 09:43:24;;;;;;;10.00;6.85;;;28.10;74.20;;;;;;4979719;28;89510;-37
2022/05/18 09:45:50;;;;;;;7.45;5.88;;;27.90;74.70;;;;;;4978321;28;90555;-38
2022/05/18 09:48:31;;;;;;;11.43;6.80;;;28.20;79.50;;;;;;4979656;28;88934;-36
2022/05/18 09:50:59;;;;;;;7.32;6.57;;;28.00;74.90;;;;;;4979014;28;90029;-37
2022/05/18 09:53:25;;;;;;;5.90;5.30;;;28.30;80.90;;;;;;4979174;28;89546;-37
2022/05/18 09:55:51;;;;;;;13.07;6.78;;;28.70;80.60;;;;;;4979724;28;89799;-35
2022/05/18 09:58:24;;;;;;;7.65;6.68;;;28.20;81.30;;;;;;4979739;28;88478;-39
2022/05/18 10:07:26;;;;;;;8.70;7.80;;;28.30;81.80;;;;;;4979095;28;90170;-40
2022/05/18 10:09:23;;;;;;;31.15;10.48;;;28.10;77.40;;;;;;4979575;28;90123;-35
2022/05/18 10:11:49;;;;;;;198.93;34.38;;;28.40;79.50;;;;;;4977993;28;89268;-34
2022/05/18 10:14:24;;;;;;;12.85;6.70;;;28.70;81.40;;;;;;4978419;28;89488;-37
2022/05/18 10:17:09;;;;;;;6.10;5.55;;;28.80;82.70;;;;;;4979090;28;90315;-36
2022/05/18 10:19:51;;;;;;;9.90;6.30;;;28.50;70.60;;;;;;4978514;28;90786;-38
2022/05/18 10:22:24;;;;;;;16.77;6.15;;;28.40;79.00;;;;;;4988062;28;91484;-37
2022/05/18 10:25:28;;;;;;;7.90;5.32;;;28.40;74.00;;;;;;4989477;28;91181;-37
2022/05/18 10:27:55;;;;;;;14.88;5.43;;;28.70;74.60;;;;;;4935646;28;89640;-39
2022/05/18 10:30:32;;;;;;;6.28;5.65;;;28.80;76.50;;;;;;4989653;28;90043;-35
2022/05/18 10:32:58;;;;;;;;;;;28.50;66.00;;;;;;4999377;28;90370;-38
2022/05/18 10:35:38;;;;;;;4.85;4.35;;;28.50;67.40;;;;;;5000453;28;91288;-35
2022/05/18 10:38:18;;;;;;;5.70;5.03;;;28.50;68.20;;;;;;4997642;28;89100;-34
2022/05/18 10:40:44;;;;;;;5.05;4.20;;;28.50;73.30;;;;;;4998371;28;89353;-37
2022/05/18 10:43:34;;;;;;;5.80;5.25;;;28.80;77.30;;;;;;4998233;28;90477;-39
2022/05/18 10:46:26;;;;;;;10.02;5.32;;;28.50;72.00;;;;;;4998432;28;88432;-36
2022/05/18 10:48:59;;;;;;;6.30;5.68;;;28.40;74.80;;;;;;4998831;28;89805;-39
2022/05/18 10:51:46;;;;;;;5.03;4.57;;;28.40;70.00;;;;;;4998652;28;88991;-38
2022/05/18 10:54:26;;;;;;;6.10;5.30;;;28.60;70.10;;;;;;4998065;28;90172;-38
2022/05/18 10:56:54;;;;;;;6.00;5.50;;;28.50;71.70;;;;;;4997854;28;90568;-36
2022/05/18 10:59:48;;;;;;;5.90;4.50;;;28.50;68.20;;;;;;4998291;28;90697;-37
2022/05/18 11:02:27;;;;;;;7.32;5.57;;;28.60;67.60;;;;;;4999112;28;89848;-37
2022/05/18 11:05:00;;;;;;;10.30;5.85;;;28.40;67.00;;;;;;4998093;28;90397;-37
2022/05/18 11:07:29;;;;;;;17.58;4.95;;;28.50;71.40;;;;;;4997719;28;90323;-40
2022/05/18 11:09:55;;;;;;;7.75;6.72;;;28.70;71.00;;;;;;4998180;28;89508;-40
2022/05/18 11:12:43;;;;;;;8.32;6.75;;;28.60;68.30;;;;;;4998639;28;88917;-36
2022/05/18 11:15:23;;;;;;;6.97;6.38;;;28.70;69.80;;;;;;4997672;28;89854;-38
2022/05/18 11:18:04;;;;;;;7.65;6.68;;;28.60;71.60;;;;;;4979736;28;89750;-38
2022/05/18 11:20:40;;;;;;;7.70;6.22;;;28.60;64.40;;;;;;4977217;28;89507;-36
2022/05/18 11:23:22;;;;;;;11.10;6.55;;;28.50;66.30;;;;;;4978700;28;88953;-36
2022/05/18 11:26:07;;;;;;;7.47;6.03;;;28.50;64.10;;;;;;4978075;28;90350;-39
2022/05/18 11:28:51;;;;;;;8.80;6.88;;;28.60;68.30;;;;;;4977358;28;90130;-36
2022/05/18 11:31:50;;;;;;;42.13;11.95;;;28.50;66.20;;;;;;4979639;28;89509;-38
2022/05/18 11:34:43;;;;;;;27.67;7.75;;;28.40;71.80;;;;;;4977915;28;87587;-35
2022/05/18 11:37:27;;;;;;;7.60;6.80;;;28.50;69.60;;;;;;4980080;28;88828;-38
2022/05/18 11:40:32;;;;;;;6.63;5.88;;;28.50;69.60;;;;;;4979118;28;89796;-39
2022/05/18 11:43:28;;;;;;;5.82;5.30;;;28.60;73.70;;;;;;4979495;28;89698;-36
2022/05/18 11:46:31;;;;;;;8.25;5.38;;;28.40;68.20;;;;;;4978864;28;88067;-38
2022/05/18 11:49:19;;;;;;;7.93;5.90;;;28.50;69.20;;;;;;4979297;28;90430;-39
2022/05/18 11:52:21;;;;;;;7.50;5.88;;;28.70;64.40;;;;;;4978889;28;90569;-39
2022/05/18 11:55:06;;;;;;;6.45;5.55;;;28.70;70.30;;;;;;4979419;28;90438;-38
2022/05/18 11:57:59;;;;;;;10.75;6.65;;;28.40;68.70;;;;;;4979862;28;89302;-39
2022/05/18 12:03:35;;;;;;;9.95;5.60;;;28.50;69.30;;;;;;4979602;28;90584;-35
2022/05/18 12:06:16;;;;;;;11.60;7.00;;;28.80;69.70;;;;;;4979307;28;90181;-36
2022/05/18 12:09:08;;;;;;;7.30;5.25;;;28.70;66.20;;;;;;4979163;28;88343;-36
2022/05/18 12:12:03;;;;;;;8.60;6.10;;;28.90;65.60;;;;;;4979928;28;90651;-40
2022/05/18 12:15:05;;;;;;;7.85;5.75;;;28.70;67.10;;;;;;4979273;28;89962;-38
2022/05/18 12:17:56;;;;;;;5.15;4.60;;;28.70;66.40;;;;;;4979805;28;89327;-37
2022/05/18 12:20:49;;;;;;;6.93;6.40;;;28.60;68.30;;;;;;4978738;28;89373;-37
2022/05/18 12:23:19;;;;;;;9.35;8.55;;;28.70;71.60;;;;;;4979200;28;91569;-36
2022/05/18 12:25:46;;;;;;;8.45;7.65;;;28.40;76.80;;;;;;4979544;28;90099;-36
2022/05/18 12:28:13;;;;;;;9.77;8.97;;;28.30;78.00;;;;;;4979111;28;89301;-39
2022/05/18 12:30:41;;;;;;;10.27;8.77;;;28.20;73.20;;;;;;4979164;28;89041;-37
2022/05/18 12:33:09;;;;;;;12.98;8.25;;;28.00;78.50;;;;;;4979467;28;90409;-37
2022/05/18 12:35:53;;;;;;;84.50;18.17;;;28.00;83.60;;;;;;4979746;28;90040;-41
2022/05/18 12:38:27;;;;;;;6.30;5.55;;;28.10;74.40;;;;;;4978796;28;90527;-36
2022/05/18 12:40:58;;;;;;;10.70;6.63;;;28.40;69.00;;;;;;4979301;28;89409;-36
2022/05/18 12:43:46;;;;;;;6.80;6.30;;;28.40;68.80;;;;;;4961124;28;90528;-37
2022/05/18 12:46:14;;;;;;;8.10;5.10;;;28.60;74.30;;;;;;5007879;22;90461;-36
2022/05/18 12:48:50;;;;;;;9.75;8.57;;;28.90;76.60;;;;;;4978718;28;88905;-35
2022/05/18 12:51:36;;;;;;;12.32;9.63;;;29.10;67.20;;;;;;4978667;28;89429;-39
2022/05/18 12:54:15;;;;;;;11.43;9.80;;;29.00;67.90;;;;;;4978337;28;89347;-40
2022/05/18 12:56:42;;;;;;;10.77;9.88;;;28.90;69.50;;;;;;4978712;28;89680;-37
2022/05/18 12:59:09;;;;;;;9.77;8.77;;;28.60;73.30;;;;;;4978646;28;89355;-37
2022/05/18 13:01:42;;;;;;;17.60;9.98;;;28.50;78.90;;;;;;4980126;28;88506;-40
2022/05/18 13:04:10;;;;;;;11.82;9.13;;;28.30;75.00;;;;;;4982066;28;90312;-38
2022/05/18 13:06:35;;;;;;;12.80;9.68;;;28.20;81.10;;;;;;4981804;28;90156;-35
2022/05/18 13:09:36;;;;;;;10.73;7.85;;;28.30;77.30;;;;;;4981563;28;89548;-37
2022/05/18 13:12:17;;;;;;;10.60;8.57;;;28.40;75.80;;;;;;4982454;28;89264;-36
2022/05/18 13:14:55;;;;;;;11.55;9.45;;;28.40;76.20;;;;;;4982215;28;90214;-36
2022/05/18 13:17:22;;;;;;;10.15;9.27;;;28.10;71.80;;;;;;4982467;28;89626;-39
2022/05/18 13:20:04;;;;;;;78.07;19.37;;;28.10;77.10;;;;;;4981032;28;89787;-38
2022/05/18 13:22:59;;;;;;;10.77;9.70;;;28.10;90.40;;;;;;4981759;28;89504;-39
2022/05/18 13:25:36;;;;;;;12.55;9.57;;;27.80;81.10;;;;;;4981487;28;91862;-37